createdAt,value
2022-12-03T00:02:25.832Z,2.47
2022-12-03T00:04:53.746Z,2.60
2022-12-03T00:07:21.662Z,1.93
2022-12-03T00:09:49.355Z,2.97
2022-12-03T00:12:17.041Z,3.57
2022-12-03T00:14:45.138Z,2.50
2022-12-03T00:17:12.972Z,2.73
2022-12-03T00:19:42.084Z,3.93
2022-12-03T00:22:11.702Z,2.37
2022-12-03T00:24:40.580Z,3.27
2022-12-03T00:27:08.353Z,3.67
2022-12-03T00:29:36.061Z,3.17
2022-12-03T00:32:03.832Z,3.00
2022-12-03T00:34:31.594Z,3.03
2022-12-03T00:37:00.683Z,3.27
2022-12-03T00:39:28.405Z,4.37
2022-12-03T00:41:56.142Z,2.10
2022-12-03T00:44:23.963Z,3.43
2022-12-03T00:46:51.730Z,3.07
2022-12-03T00:49:19.599Z,3.17
2022-12-03T00:51:47.352Z,3.77
2022-12-03T00:54:16.409Z,2.83
2022-12-03T00:56:44.186Z,3.23
2022-12-03T00:59:11.881Z,3.67
2022-12-03T01:01:40.594Z,3.23
2022-12-03T01:04:08.360Z,2.33
2022-12-03T01:06:36.153Z,2.47
2022-12-03T01:09:04.025Z,2.97
2022-12-03T01:11:38.816Z,3.20
2022-12-03T01:14:07.152Z,3.47
2022-12-03T01:16:41.776Z,3.50
2022-12-03T01:19:11.320Z,2.17
2022-12-03T01:21:39.080Z,2.50
2022-12-03T01:24:07.519Z,3.10
2022-12-03T01:26:36.767Z,2.77
2022-12-03T01:29:05.048Z,2.20
2022-12-03T01:31:50.702Z,3.27
2022-12-03T01:34:18.515Z,3.80
2022-12-03T01:36:46.265Z,3.67
2022-12-03T01:39:13.985Z,3.07
2022-12-03T01:41:43.196Z,3.53
2022-12-03T01:44:17.738Z,3.03
2022-12-03T01:46:46.582Z,3.30
2022-12-03T01:49:19.519Z,3.10
2022-12-03T01:51:48.210Z,3.10
2022-12-03T01:54:19.377Z,3.90
2022-12-03T01:56:49.093Z,4.27
2022-12-03T01:59:18.086Z,2.97
2022-12-03T02:01:46.233Z,3.50
2022-12-03T02:04:16.080Z,3.83
2022-12-03T02:06:45.039Z,4.43
2022-12-03T02:09:13.498Z,3.97
2022-12-03T02:11:44.000Z,3.13
2022-12-03T02:14:15.465Z,2.63
2022-12-03T02:16:43.741Z,3.77
2022-12-03T02:19:17.784Z,3.00
2022-12-03T02:21:53.530Z,4.00
2022-12-03T02:24:28.103Z,4.13
2022-12-03T02:26:57.197Z,3.03
2022-12-03T02:29:25.540Z,4.27
2022-12-03T02:31:53.390Z,4.30
2022-12-03T02:34:38.274Z,3.27
2022-12-03T02:37:08.617Z,4.73
2022-12-03T02:39:40.355Z,3.27
2022-12-03T02:42:27.504Z,4.50
2022-12-03T02:44:58.423Z,3.20
2022-12-03T02:47:31.562Z,3.67
2022-12-03T02:50:00.621Z,4.10
2022-12-03T02:52:28.621Z,3.57
2022-12-03T02:54:56.535Z,4.53
2022-12-03T02:57:25.675Z,4.47
2022-12-03T02:59:53.488Z,5.23
2022-12-03T03:02:21.706Z,3.87
2022-12-03T03:04:50.424Z,3.93
2022-12-03T03:07:18.433Z,4.47
2022-12-03T03:09:46.219Z,4.80
2022-12-03T03:12:13.983Z,4.07
2022-12-03T03:14:43.065Z,4.73
2022-12-03T03:17:11.534Z,4.87
2022-12-03T03:19:39.324Z,4.97
2022-12-03T03:22:07.172Z,4.03
2022-12-03T03:24:35.014Z,5.00
2022-12-03T03:27:02.871Z,3.27
2022-12-03T03:29:31.525Z,4.43
2022-12-03T03:32:01.606Z,5.10
2022-12-03T03:34:29.998Z,4.43
2022-12-03T03:36:57.714Z,4.43
2022-12-03T03:39:26.050Z,4.20
2022-12-03T03:41:53.868Z,4.77
2022-12-03T03:44:21.725Z,4.87
2022-12-03T03:46:49.660Z,3.40
2022-12-03T03:49:18.807Z,4.27
2022-12-03T03:51:47.474Z,4.17
2022-12-03T03:54:15.605Z,4.13
2022-12-03T03:56:43.757Z,4.17
2022-12-03T03:59:11.551Z,4.13
2022-12-03T04:01:39.699Z,5.07
2022-12-03T04:04:13.936Z,4.90
2022-12-03T04:06:45.137Z,4.33
2022-12-03T04:09:14.190Z,4.00
2022-12-03T04:12:00.006Z,4.67
2022-12-03T04:14:27.785Z,4.07
2022-12-03T04:16:55.788Z,4.73
2022-12-03T04:19:30.183Z,4.20
2022-12-03T04:22:16.966Z,3.73
2022-12-03T04:24:44.704Z,4.63
2022-12-03T04:27:30.292Z,4.43
2022-12-03T04:29:58.317Z,4.83
2022-12-03T04:32:44.063Z,4.33
2022-12-03T04:35:37.785Z,5.27
2022-12-03T04:38:06.868Z,5.43
2022-12-03T04:40:57.808Z,3.50
2022-12-03T04:43:25.563Z,5.03
2022-12-03T04:45:53.459Z,4.60
2022-12-03T04:48:21.339Z,4.43
2022-12-03T04:50:49.187Z,3.00
2022-12-03T04:53:18.285Z,4.73
2022-12-03T04:55:46.097Z,5.00
2022-12-03T04:58:13.899Z,3.97
2022-12-03T05:00:41.648Z,5.17
2022-12-03T05:03:09.390Z,3.73
2022-12-03T05:05:37.160Z,4.30
2022-12-03T05:08:05.033Z,4.57
2022-12-03T05:10:34.232Z,3.97
2022-12-03T05:13:01.995Z,4.03
2022-12-03T05:15:29.696Z,5.07
2022-12-03T05:17:57.412Z,3.30
2022-12-03T05:20:47.139Z,4.87
2022-12-03T05:23:20.618Z,4.10
2022-12-03T05:25:49.806Z,5.33
2022-12-03T05:28:17.845Z,4.60
2022-12-03T05:30:45.673Z,3.77
2022-12-03T05:33:13.732Z,3.33
2022-12-03T05:35:41.547Z,3.87
2022-12-03T05:38:24.481Z,4.97
2022-12-03T05:40:53.617Z,5.93
2022-12-03T05:43:20.469Z,4.70
2022-12-03T05:45:48.279Z,4.60
2022-12-03T05:48:17.765Z,3.23
2022-12-03T05:50:47.278Z,4.83
2022-12-03T05:53:16.417Z,4.10
2022-12-03T05:55:44.657Z,3.67
2022-12-03T05:58:13.729Z,5.27
2022-12-03T06:00:42.969Z,2.30
2022-12-03T06:03:11.676Z,3.63
2022-12-03T06:05:39.714Z,3.50
2022-12-03T06:08:07.507Z,3.87
2022-12-03T06:10:35.456Z,3.67
2022-12-03T06:13:03.266Z,3.43
2022-12-03T06:15:32.580Z,3.80
2022-12-03T06:18:00.360Z,6.00
2022-12-03T06:20:28.081Z,3.17
2022-12-03T06:22:55.795Z,5.03
2022-12-03T06:25:23.557Z,4.43
2022-12-03T06:27:51.273Z,3.93
2022-12-03T06:30:19.134Z,4.43
2022-12-03T06:32:48.200Z,4.07
2022-12-03T06:35:16.114Z,4.80
2022-12-03T06:37:43.833Z,3.73
2022-12-03T06:40:13.281Z,5.13
2022-12-03T06:42:41.105Z,3.63
2022-12-03T06:45:09.446Z,5.77
2022-12-03T06:47:37.460Z,4.30
2022-12-03T06:50:08.271Z,3.90
2022-12-03T06:52:36.449Z,4.93
2022-12-03T06:55:04.391Z,3.60
2022-12-03T06:57:32.143Z,5.53
2022-12-03T06:59:59.868Z,3.30
2022-12-03T07:02:27.760Z,3.43
2022-12-03T07:04:55.912Z,3.60
2022-12-03T07:07:25.231Z,4.70
2022-12-03T07:09:53.049Z,4.73
2022-12-03T07:12:20.888Z,3.97
2022-12-03T07:14:48.628Z,5.63
2022-12-03T07:17:16.889Z,5.30
2022-12-03T07:19:44.668Z,4.23
2022-12-03T07:22:12.835Z,3.60
2022-12-03T07:24:41.892Z,5.00
2022-12-03T07:27:09.733Z,4.13
2022-12-03T07:29:37.557Z,4.17
2022-12-03T07:32:06.859Z,5.80
2022-12-03T07:34:34.651Z,4.40
2022-12-03T07:37:02.417Z,3.77
2022-12-03T07:39:31.485Z,3.30
2022-12-03T07:42:01.130Z,5.37
2022-12-03T07:44:31.361Z,4.43
2022-12-03T07:46:59.557Z,4.50
2022-12-03T07:49:27.664Z,3.17
2022-12-03T07:51:56.767Z,4.60
2022-12-03T07:54:25.174Z,4.90
2022-12-03T07:56:56.709Z,3.43
2022-12-03T07:59:29.727Z,4.37
2022-12-03T08:01:57.653Z,4.30
2022-12-03T08:04:25.562Z,4.23
2022-12-03T08:06:53.261Z,4.00
2022-12-03T08:09:21.144Z,4.83
2022-12-03T08:11:49.696Z,4.70
2022-12-03T08:14:19.307Z,5.10
2022-12-03T08:16:49.286Z,3.87
2022-12-03T08:19:18.837Z,3.77
2022-12-03T08:21:46.843Z,4.27
2022-12-03T08:24:16.510Z,5.67
2022-12-03T08:26:45.173Z,3.57
2022-12-03T08:29:14.827Z,3.87
2022-12-03T08:31:43.256Z,4.57
2022-12-03T08:34:19.549Z,4.23
2022-12-03T08:36:48.240Z,4.73
2022-12-03T08:39:29.435Z,3.87
2022-12-03T08:42:20.795Z,4.17
2022-12-03T08:44:48.852Z,4.13
2022-12-03T08:47:20.644Z,3.27
2022-12-03T08:49:54.983Z,3.77
2022-12-03T08:52:24.629Z,3.73
2022-12-03T08:54:54.693Z,4.73
2022-12-03T08:57:31.347Z,4.97
2022-12-03T09:00:02.136Z,3.57
2022-12-03T09:02:34.107Z,4.97
2022-12-03T09:05:17.081Z,5.13
2022-12-03T09:07:44.858Z,5.77
2022-12-03T09:10:12.984Z,3.43
2022-12-03T09:12:40.824Z,4.57
2022-12-03T09:15:09.272Z,4.87
2022-12-03T09:17:36.952Z,3.40
2022-12-03T09:20:07.463Z,4.77
2022-12-03T09:22:35.285Z,4.07
2022-12-03T09:25:03.058Z,4.13
2022-12-03T09:27:30.812Z,4.67
2022-12-03T09:29:58.926Z,4.63
2022-12-03T09:32:26.807Z,4.40
2022-12-03T09:34:55.435Z,5.60
2022-12-03T09:37:24.965Z,4.23
2022-12-03T09:39:52.744Z,5.20
2022-12-03T09:42:20.808Z,3.70
2022-12-03T09:44:48.573Z,3.73
2022-12-03T09:47:16.300Z,3.17
2022-12-03T09:49:44.861Z,4.30
2022-12-03T09:52:20.401Z,3.57
2022-12-03T09:54:49.925Z,4.93
2022-12-03T09:57:18.780Z,4.50
2022-12-03T09:59:47.298Z,5.00
2022-12-03T10:02:21.192Z,5.17
2022-12-03T10:04:49.665Z,3.93
2022-12-03T10:07:17.837Z,3.87
2022-12-03T10:09:45.622Z,5.90
2022-12-03T10:12:16.199Z,4.07
2022-12-03T10:14:44.508Z,5.03
2022-12-03T10:17:12.947Z,5.00
2022-12-03T10:19:42.665Z,4.63
2022-12-03T10:22:10.466Z,5.90
2022-12-03T10:24:39.705Z,5.73
2022-12-03T10:27:24.831Z,5.20
2022-12-03T10:29:57.063Z,5.10
2022-12-03T10:32:27.785Z,4.47
2022-12-03T10:35:09.592Z,6.30
2022-12-03T10:37:37.602Z,4.47
2022-12-03T10:40:09.150Z,4.90
2022-12-03T10:42:40.261Z,4.80
2022-12-03T10:45:13.096Z,4.80
2022-12-03T10:47:40.977Z,3.43
2022-12-03T10:50:19.479Z,5.13
2022-12-03T10:52:48.285Z,4.50
2022-12-03T10:55:16.815Z,3.50
2022-12-03T10:57:46.976Z,5.03
2022-12-03T11:00:18.084Z,2.50
2022-12-03T11:02:49.261Z,4.30
2022-12-03T11:05:26.614Z,4.13
2022-12-03T11:07:54.747Z,3.73
2022-12-03T11:10:22.934Z,5.23
2022-12-03T11:13:29.560Z,4.80
2022-12-03T11:15:58.024Z,3.67
2022-12-03T11:19:01.412Z,3.57
2022-12-03T11:21:29.521Z,3.20
2022-12-03T11:24:06.141Z,3.80
2022-12-03T11:27:25.901Z,3.50
2022-12-03T11:30:00.333Z,4.37
2022-12-03T11:33:06.061Z,3.23
2022-12-03T11:36:14.162Z,5.23
2022-12-03T11:39:03.202Z,3.90
2022-12-03T11:41:33.210Z,3.47
2022-12-03T11:44:26.918Z,3.43
2022-12-03T11:46:58.536Z,4.90
2022-12-03T11:49:48.935Z,4.43
2022-12-03T11:52:26.734Z,4.27
2022-12-03T11:55:00.979Z,4.87
2022-12-03T11:57:37.613Z,5.37
2022-12-03T12:00:21.664Z,4.93
2022-12-03T12:02:51.909Z,4.10
2022-12-03T12:05:29.477Z,3.57
2022-12-03T12:07:58.017Z,3.60
2022-12-03T12:10:48.685Z,2.60
2022-12-03T12:13:27.793Z,4.70
2022-12-03T12:15:55.808Z,2.63
2022-12-03T12:18:38.966Z,4.20
2022-12-03T12:21:38.860Z,3.53
2022-12-03T12:24:29.265Z,4.40
2022-12-03T12:26:58.368Z,2.73
2022-12-03T12:29:26.186Z,3.60
2022-12-03T12:32:00.794Z,4.40
2022-12-03T12:34:30.179Z,3.90
2022-12-03T12:37:00.959Z,3.90
2022-12-03T12:39:28.703Z,4.23
2022-12-03T12:41:56.577Z,3.63
2022-12-03T12:44:26.340Z,4.03
2022-12-03T12:46:54.825Z,3.40
2022-12-03T12:49:26.817Z,4.33
2022-12-03T12:51:55.894Z,3.70
2022-12-03T12:54:23.772Z,3.03
2022-12-03T12:56:51.645Z,3.93
2022-12-03T12:59:22.204Z,3.73
2022-12-03T13:01:51.183Z,2.67
2022-12-03T13:04:21.115Z,4.13
2022-12-03T13:06:50.396Z,4.00
2022-12-03T13:09:21.523Z,3.97
2022-12-03T13:11:54.509Z,3.57
2022-12-03T13:14:23.743Z,4.57
2022-12-03T13:16:52.970Z,5.03
2022-12-03T13:19:23.701Z,5.20
2022-12-03T13:21:53.471Z,3.00
2022-12-03T13:24:32.405Z,3.07
2022-12-03T13:27:01.680Z,4.30
2022-12-03T13:29:29.725Z,3.67
2022-12-03T13:31:59.683Z,2.63
2022-12-03T13:34:29.169Z,3.47
2022-12-03T13:36:58.501Z,3.33
2022-12-03T13:39:32.215Z,3.87
2022-12-03T13:42:31.119Z,3.40
2022-12-03T13:44:58.796Z,3.03
2022-12-03T13:47:26.812Z,3.40
2022-12-03T13:49:56.439Z,3.23
2022-12-03T13:52:26.276Z,4.83
2022-12-03T13:54:57.241Z,4.37
2022-12-03T13:57:25.314Z,2.87
2022-12-03T13:59:53.318Z,3.27
2022-12-03T14:02:21.439Z,3.13
2022-12-03T14:04:49.324Z,3.10
2022-12-03T14:07:17.475Z,3.10
2022-12-03T14:09:45.185Z,4.13
2022-12-03T14:12:33.895Z,3.57
2022-12-03T14:15:01.870Z,3.00
2022-12-03T14:17:30.790Z,2.90
2022-12-03T14:20:00.501Z,4.07
2022-12-03T14:22:28.433Z,3.50
2022-12-03T14:24:56.461Z,3.90
2022-12-03T14:27:25.600Z,3.97
2022-12-03T14:29:53.671Z,4.60
2022-12-03T14:32:21.747Z,2.63
2022-12-03T14:34:49.485Z,3.00
2022-12-03T14:37:17.268Z,2.97
2022-12-03T14:39:45.087Z,4.50
2022-12-03T14:42:14.562Z,4.60
2022-12-03T14:44:44.881Z,3.63
2022-12-03T14:47:13.499Z,4.17
2022-12-03T14:49:42.036Z,4.67
2022-12-03T14:52:12.532Z,4.40
2022-12-03T14:54:42.022Z,4.63
2022-12-03T14:57:11.365Z,3.33
2022-12-03T14:59:39.240Z,4.53
2022-12-03T15:02:09.081Z,3.50
2022-12-03T15:04:36.839Z,3.47
2022-12-03T15:07:05.041Z,3.90
2022-12-03T15:09:32.785Z,3.33
2022-12-03T15:12:00.556Z,2.40
2022-12-03T15:14:28.678Z,3.23
2022-12-03T15:16:56.844Z,2.73
2022-12-03T15:19:26.064Z,3.07
2022-12-03T15:21:53.817Z,3.77
2022-12-03T15:24:21.544Z,3.73
2022-12-03T15:26:49.466Z,4.80
2022-12-03T15:29:17.176Z,2.97
2022-12-03T15:31:45.107Z,3.37
2022-12-03T15:34:17.275Z,3.60
2022-12-03T15:36:49.631Z,3.77
2022-12-03T15:39:17.355Z,2.73
2022-12-03T15:41:45.055Z,4.07
2022-12-03T15:44:12.778Z,4.23
2022-12-03T15:46:40.528Z,4.50
2022-12-03T15:49:08.270Z,4.70
2022-12-03T15:51:36.009Z,3.40
2022-12-03T15:54:06.379Z,3.17
2022-12-03T15:56:37.505Z,2.70
2022-12-03T15:59:05.534Z,3.37
2022-12-03T16:01:33.353Z,3.53
2022-12-03T16:04:01.245Z,4.10
2022-12-03T16:06:29.223Z,3.63
2022-12-03T16:08:57.069Z,3.50
2022-12-03T16:11:26.177Z,4.03
2022-12-03T16:13:54.126Z,4.30
2022-12-03T16:16:21.903Z,3.40
2022-12-03T16:18:49.709Z,3.60
2022-12-03T16:21:20.759Z,3.30
2022-12-03T16:23:51.121Z,3.57
2022-12-03T16:26:18.910Z,4.00
2022-12-03T16:28:48.080Z,3.57
2022-12-03T16:31:15.876Z,4.13
2022-12-03T16:33:43.816Z,4.77
2022-12-03T16:36:11.639Z,3.93
2022-12-03T16:38:39.443Z,3.63
2022-12-03T16:41:07.369Z,4.90
2022-12-03T16:43:38.526Z,4.93
2022-12-03T16:46:21.185Z,3.97
2022-12-03T16:48:49.336Z,2.47
2022-12-03T16:51:19.157Z,4.37
2022-12-03T16:53:47.296Z,3.67
2022-12-03T16:56:15.651Z,4.93
2022-12-03T16:58:43.526Z,4.77
2022-12-03T17:01:12.789Z,4.40
2022-12-03T17:03:40.479Z,4.03
2022-12-03T17:06:08.606Z,3.83
2022-12-03T17:08:36.314Z,4.07
2022-12-03T17:11:04.353Z,5.60
2022-12-03T17:13:32.202Z,5.13
2022-12-03T17:16:00.739Z,4.97
2022-12-03T17:18:30.018Z,4.57
2022-12-03T17:20:57.905Z,4.93
2022-12-03T17:23:25.689Z,4.50
2022-12-03T17:25:53.436Z,4.60
2022-12-03T17:28:21.185Z,5.10
2022-12-03T17:30:49.316Z,5.17
2022-12-03T17:33:17.190Z,5.17
2022-12-03T17:35:46.519Z,5.90
2022-12-03T17:38:14.206Z,4.37
2022-12-03T17:40:42.160Z,4.00
2022-12-03T17:43:10.010Z,4.27
2022-12-03T17:45:37.696Z,4.27
2022-12-03T17:48:05.736Z,4.47
2022-12-03T17:50:34.017Z,4.80
2022-12-03T17:53:05.287Z,4.10
2022-12-03T17:55:39.805Z,6.40
2022-12-03T17:58:11.934Z,4.87
2022-12-03T18:00:39.767Z,4.63
2022-12-03T18:03:07.738Z,3.43
2022-12-03T18:05:35.540Z,5.00
2022-12-03T18:08:04.865Z,4.47
2022-12-03T18:10:32.824Z,5.03
2022-12-03T18:13:02.285Z,4.97
2022-12-03T18:15:30.633Z,5.30
2022-12-03T18:17:58.397Z,5.30
2022-12-03T18:20:26.120Z,4.47
2022-12-03T18:22:53.837Z,6.97
2022-12-03T18:25:23.044Z,6.23
2022-12-03T18:27:50.866Z,5.53
2022-12-03T18:30:18.735Z,6.83
2022-12-03T18:32:46.476Z,6.63
2022-12-03T18:35:14.486Z,5.43
2022-12-03T18:37:42.320Z,6.00
2022-12-03T18:40:18.465Z,5.97
2022-12-03T18:42:48.808Z,6.97
2022-12-03T18:45:17.261Z,4.50
2022-12-03T18:47:45.443Z,5.23
2022-12-03T18:50:13.843Z,6.20
2022-12-03T18:52:41.679Z,5.53
2022-12-03T18:55:13.426Z,5.20
2022-12-03T18:57:41.151Z,4.70
2022-12-03T19:00:13.620Z,7.10
2022-12-03T19:05:29.541Z,5.07
2022-12-03T19:07:57.315Z,5.87
2022-12-03T19:10:25.320Z,5.93
2022-12-03T19:12:53.117Z,5.77
2022-12-03T19:15:22.796Z,5.97
2022-12-03T19:17:51.207Z,7.23
2022-12-03T19:20:19.115Z,4.90
2022-12-03T19:22:46.848Z,5.53
2022-12-03T19:25:14.566Z,6.67
2022-12-03T19:27:42.256Z,6.03
2022-12-03T19:30:11.413Z,5.90
2022-12-03T19:32:40.424Z,5.63
2022-12-03T19:35:11.108Z,4.87
2022-12-03T19:37:38.967Z,5.60
2022-12-03T19:40:10.115Z,5.37
2022-12-03T19:42:37.865Z,6.77
2022-12-03T19:45:06.545Z,5.57
2022-12-03T19:47:35.027Z,4.53
2022-12-03T19:50:04.723Z,6.50
2022-12-03T19:52:35.080Z,5.37
2022-12-03T19:55:03.002Z,7.40
2022-12-03T19:57:30.803Z,8.27
2022-12-03T19:59:58.567Z,5.57
2022-12-03T20:02:26.610Z,6.13
2022-12-03T20:04:54.418Z,6.47
2022-12-03T20:07:23.597Z,5.43
2022-12-03T20:09:52.644Z,6.60
2022-12-03T20:12:20.889Z,4.47
2022-12-03T20:14:49.841Z,4.20
2022-12-03T20:17:17.577Z,6.07
2022-12-03T20:19:45.472Z,6.77
2022-12-03T20:22:13.205Z,7.23
2022-12-03T20:24:42.331Z,6.53
2022-12-03T20:27:10.087Z,6.30
2022-12-03T20:29:37.778Z,6.40
2022-12-03T20:32:06.962Z,7.00
2022-12-03T20:34:35.784Z,6.00
2022-12-03T20:37:04.545Z,5.70
2022-12-03T20:39:32.302Z,5.40
2022-12-03T20:42:01.312Z,5.93
2022-12-03T20:44:30.137Z,9.30
2022-12-03T20:46:57.935Z,6.60
2022-12-03T20:49:25.625Z,4.33
2022-12-03T20:51:53.392Z,5.13
2022-12-03T20:54:21.208Z,5.77
2022-12-03T20:56:49.581Z,5.13
2022-12-03T20:59:19.023Z,8.03
2022-12-03T21:01:46.870Z,6.87
2022-12-03T21:04:15.980Z,5.03
2022-12-03T21:06:43.695Z,5.50
2022-12-03T21:09:13.148Z,6.17
2022-12-03T21:11:42.381Z,8.03
2022-12-03T21:14:11.885Z,6.50
2022-12-03T21:19:30.262Z,6.90
2022-12-03T21:21:58.020Z,5.13
2022-12-03T21:24:25.831Z,6.73
2022-12-03T21:26:53.576Z,6.30
2022-12-03T21:29:21.272Z,4.27
2022-12-03T21:31:55.439Z,5.93
2022-12-03T21:34:23.149Z,7.20
2022-12-03T21:36:50.927Z,6.60
2022-12-03T21:39:19.259Z,7.30
2022-12-03T21:42:19.162Z,5.23
2022-12-03T21:44:35.083Z,5.47
2022-12-03T21:47:10.775Z,5.20
2022-12-03T21:49:41.838Z,4.23
2022-12-03T21:52:09.588Z,5.90
2022-12-03T21:54:37.398Z,7.47
2022-12-03T21:57:05.105Z,5.40
2022-12-03T21:59:33.017Z,5.07
2022-12-03T22:02:00.838Z,6.17
2022-12-03T22:04:30.173Z,4.70
2022-12-03T22:06:57.833Z,6.10
2022-12-03T22:09:26.930Z,5.83
2022-12-03T22:11:56.758Z,5.80
2022-12-03T22:14:24.466Z,5.10
2022-12-03T22:16:52.375Z,4.73
2022-12-03T22:19:22.393Z,6.30
2022-12-03T22:21:51.394Z,6.73
2022-12-03T22:24:19.512Z,6.20
2022-12-03T22:26:47.490Z,5.80
2022-12-03T22:29:15.294Z,7.37
2022-12-03T22:31:43.030Z,6.63
2022-12-03T22:34:10.742Z,4.67
2022-12-03T22:36:38.567Z,6.80
2022-12-03T22:39:07.610Z,6.17
2022-12-03T22:41:35.331Z,7.03
2022-12-03T22:44:03.057Z,5.57
2022-12-03T22:46:30.862Z,5.53
2022-12-03T22:49:03.464Z,6.07
2022-12-03T22:51:35.322Z,7.10
2022-12-03T22:54:03.316Z,4.37
2022-12-03T22:56:32.444Z,5.70
2022-12-03T22:59:00.536Z,5.83
2022-12-03T23:01:30.092Z,5.33
2022-12-03T23:03:58.553Z,7.80
2022-12-03T23:06:26.629Z,7.30
2022-12-03T23:08:54.355Z,5.40
2022-12-03T23:11:22.488Z,5.20
2022-12-03T23:13:51.869Z,9.10
2022-12-03T23:16:22.437Z,5.33
2022-12-03T23:18:50.732Z,5.50
2022-12-03T23:21:24.017Z,5.97
2022-12-03T23:23:56.681Z,6.83
2022-12-03T23:26:24.400Z,5.87
2022-12-03T23:28:53.682Z,6.60
2022-12-03T23:31:23.939Z,5.87
2022-12-03T23:33:54.553Z,7.03
2022-12-03T23:36:24.101Z,4.57
2022-12-03T23:38:52.042Z,5.13
2022-12-03T23:41:21.878Z,7.00
2022-12-03T23:43:50.670Z,6.17
2022-12-03T23:46:22.042Z,4.87
2022-12-03T23:48:50.195Z,6.27
2022-12-03T23:51:19.464Z,6.03
2022-12-03T23:53:47.869Z,7.43
2022-12-03T23:56:18.136Z,6.60
2022-12-03T23:58:46.718Z,6.67
